Date,TemperatureHighF,TemperatureAvgF,TemperatureLowF,DewpointHighF,DewpointAvgF,DewpointLowF,HumidityHigh,HumidityAvg,HumidityLow,PressureMaxIn,PressureMinIn,WindSpeedMaxMPH,WindSpeedAvgMPH,GustSpeedMaxMPH,PrecipitationSumIn
2013-1-1,33,27,14,6,-20,-32,32,5,1,29.52,29.38,0,0,0,0.00
2013-1-2,37,18,7,18,-10,-38,59,32,1,29.61,29.50,0,0,0,0.01
2013-1-3,36,24,10,20,2,-19,62,43,2,29.64,29.52,0,0,0,0.02
2013-1-4,36,27,17,21,4,-38,59,41,1,29.68,29.63,0,0,0,0.00
2013-1-5,46,31,18,30,-7,-33,58,20,1,29.66,29.46,0,0,0,0.01
2013-1-6,37,32,24,16,-2,-18,55,24,1,29.70,29.35,0,0,0,0.00
2013-1-7,42,28,16,28,1,-31,62,35,1,29.78,29.56,0,0,0,0.00
2013-1-8,49,35,24,33,8,-37,62,37,1,29.63,29.53,0,0,0,0.00
2013-1-9,55,42,29,40,14,-21,60,35,1,29.85,29.51,0,0,0,0.08
2013-1-10,45,36,26,29,-6,-23,60,16,1,29.85,29.38,0,0,0,0.07
2013-1-11,63,53,45,20,-1,-8,19,2,1,29.38,29.17,0,0,0,0.63
2013-1-12,72,55,47,54,3,-23,52,5,1,29.34,29.05,0,0,0,0.94
2013-1-13,58,38,23,1,-14,-25,1,1,1,29.56,29.00,0,0,0,1.12
2013-1-14,26,22,18,-14,-26,-30,17,2,1,29.79,29.55,0,0,0,0.00
2013-1-15,36,27,20,17,-15,-28,48,11,1,29.73,29.44,0,0,0,0.00
2013-1-16,42,31,23,26,-2,-25,55,26,1,29.44,29.31,0,0,0,0.00
2013-1-17,44,34,21,29,5,-21,60,34,1,29.76,29.43,0,0,0,0.00
2013-1-18,45,31,17,25,7,-29,58,40,1,29.83,29.48,0,0,0,0.00
2013-1-19,59,47,39,35,29,23,58,51,39,29.49,29.21,0,0,0,0.00
2013-1-20,46,29,22,27,15,11,61,56,43,29.63,29.26,0,0,0,0.01
2013-1-21,23,16,9,12,4,-2,62,59,43,29.60,29.47,0,0,0,0.00
2013-1-22,22,12,4,5,0,-5,67,58,44,29.73,29.60,0,0,0,0.00
2013-1-23,23,18,9,12,6,-1,64,58,46,29.68,29.44,0,0,0,0.00
2013-1-24,31,21,14,14,6,-31,64,53,9,29.94,29.50,0,0,0,0.00
2013-1-25,28,23,18,17,7,-28,63,52,2,29.73,29.38,0,0,0,0.01
2013-1-26,38,24,17,23,9,-13,63,53,24,29.77,29.45,0,0,0,0.02
2013-1-27,38,28,17,23,3,-29,59,36,1,29.75,29.40,0,0,0,0.28
2013-1-28,53,47,38,-2,-7,-14,1,1,1,29.44,29.32,0,0,0,0.14
2013-1-29,63,56,50,6,0,-4,1,1,1,29.35,28.79,0,0,0,0.00
2013-1-30,65,47,29,7,-7,-20,15,1,1,28.97,28.63,0,0,0,0.87
2013-1-31,31,24,11,14,-2,-36,63,35,1,29.46,28.97,0,0,0,0.00
2013-2-1,23,13,6,10,2,-5,65,61,52,29.75,29.46,0,0,0,0.00
2013-2-2,30,24,18,12,-6,-28,63,30,1,29.61,29.33,0,0,0,0.00
2013-2-3,26,20,12,13,4,-4,60,51,34,29.44,29.30,0,0,0,0.00
2013-2-4,41,29,21,23,9,-18,61,45,1,29.43,29.14,0,0,0,0.01
2013-2-5,37,30,21,22,0,-27,55,30,1,29.37,29.18,0,0,0,0.00
2013-2-6,46,34,30,29,13,-18,61,44,1,29.61,29.38,0,0,0,0.00
2013-2-7,60,38,29,39,6,-30,62,27,1,29.54,29.16,0,0,0,0.15
2013-2-8,42,36,30,25,2,-17,64,29,1,29.68,29.17,0,0,0,0.01
2013-2-9,46,33,19,31,17,-44,66,55,1,29.75,29.52,0,0,0,0.00
2013-2-10,51,43,33,37,20,-5,66,45,1,29.52,29.06,0,0,0,0.06
2013-2-11,52,41,32,37,23,-5,63,52,1,29.39,29.05,0,0,0,0.02
2013-2-12,51,36,27,32,19,-4,64,50,24,29.49,29.29,0,0,0,0.00
2013-2-13,52,35,27,32,10,-48,64,39,1,29.29,29.13,0,0,0,0.00
2013-2-14,53,39,35,39,10,-18,67,36,1,29.35,29.16,0,0,0,0.00
2013-2-15,39,30,19,28,14,-20,70,53,6,29.51,29.33,0,0,0,0.01
2013-2-16,29,22,19,15,11,2,70,61,44,29.49,29.43,0,0,0,0.00
2013-2-17,41,24,7,18,8,-1,71,54,29,29.58,29.47,0,0,0,0.02
2013-2-18,59,42,26,41,25,-8,64,54,1,29.49,28.99,0,0,0,0.11
2013-2-19,46,26,22,18,14,-16,70,62,1,29.47,28.93,0,0,0,0.11
2013-2-20,32,22,13,18,12,5,72,65,50,29.67,29.47,0,0,0,0.00
2013-2-21,40,27,18,25,14,-7,70,60,21,29.69,29.36,0,0,0,0.00
2013-2-22,38,34,29,21,-6,-20,52,16,1,29.37,29.20,0,0,0,0.21
2013-2-23,44,32,25,28,20,9,68,60,47,29.35,29.27,0,0,0,0.09
2013-2-24,47,31,19,30,19,-2,69,60,32,29.49,29.32,0,0,0,0.00
2013-2-25,56,36,21,35,21,-9,68,57,20,29.51,29.23,0,0,0,0.00
2013-2-26,42,38,34,26,-2,-17,68,21,1,29.24,28.75,0,0,0,1.01
2013-2-27,42,36,33,12,-12,-18,36,6,1,29.05,28.83,0,0,0,0.03
2013-2-28,39,35,33,20,-8,-22,46,12,1,29.33,29.03,0,0,0,0.02
2013-3-1,36,33,31,18,-3,-19,53,21,1,29.42,29.30,0,0,0,0.02
2013-3-2,32,29,27,21,17,-13,66,59,17,29.45,29.40,0,0,0,0.00
2013-3-3,36,28,19,23,15,-13,68,58,16,29.46,29.40,0,0,0,0.02
2013-3-4,43,31,16,27,19,-8,66,61,20,29.48,29.32,0,0,0,0.00
2013-3-5,38,35,29,25,4,-21,63,30,1,29.34,29.01,0,0,0,0.12
2013-3-6,36,31,28,18,-13,-22,47,10,1,29.62,29.10,0,0,0,0.01
2013-3-7,41,34,30,30,8,-20,67,41,1,29.74,29.60,0,0,0,0.17
2013-3-8,53,35,20,33,19,-20,68,53,12,29.83,29.71,0,0,0,0.02
2013-3-9,54,44,30,38,31,19,66,60,53,29.71,29.32,0,0,0,0.00
2013-3-10,69,57,51,43,39,36,62,51,36,29.32,29.10,0,0,0,0.01
2013-3-11,59,47,35,45,10,-11,65,25,1,29.22,28.97,0,0,0,0.17
2013-3-12,48,37,33,31,18,-17,67,48,1,29.38,29.22,0,0,0,0.01
2013-3-13,34,30,27,23,18,3,68,62,33,29.66,29.37,0,0,0,0.01
2013-3-14,51,33,19,27,18,5,69,55,28,29.69,29.50,0,0,0,0.00
2013-3-15,52,40,30,38,18,-20,67,44,1,29.50,29.11,0,0,0,0.00
2013-3-16,48,42,36,32,14,-13,60,34,1,29.40,28.96,0,0,0,0.03
2013-3-17,43,35,31,30,24,16,69,63,50,29.52,29.32,0,0,0,0.00
2013-3-18,44,38,34,22,-8,-17,59,11,1,29.33,28.94,0,0,0,0.40
2013-3-19,45,34,26,24,19,12,69,55,33,29.45,29.17,0,0,0,0.01
2013-3-20,36,29,23,19,15,9,69,57,41,29.45,29.36,0,0,0,0.00
2013-3-21,42,27,17,20,13,10,71,57,36,29.39,29.32,0,0,0,0.00
2013-3-22,54,32,16,24,16,8,72,54,27,29.42,29.34,0,0,0,0.00
2013-3-23,57,40,29,31,24,17,69,55,36,29.43,29.27,0,0,0,0.00
2013-3-24,38,33,29,26,9,-21,70,44,1,29.27,28.83,0,0,0,0.04
2013-3-25,37,32,29,25,-8,-21,63,16,1,29.34,28.85,0,0,0,0.19
2013-3-26,43,36,32,30,16,-18,69,49,7,29.60,29.34,0,0,0,0.04
2013-3-27,48,35,26,29,22,12,69,58,39,29.67,29.58,0,0,0,0.00
2013-3-28,56,38,25,32,23,16,71,58,36,29.72,29.64,0,0,0,0.00
2013-3-29,64,42,27,39,27,5,70,55,29,29.68,29.56,0,0,0,0.00
2013-3-30,61,46,27,37,28,-12,70,52,12,29.59,29.28,0,0,0,0.00
2013-3-31,66,52,44,45,36,24,69,56,38,29.28,29.11,0,0,0,0.02
2013-4-1,50,41,33,37,24,16,70,54,29,29.50,29.19,0,0,0,0.00
2013-4-2,52,36,24,24,18,13,72,51,25,29.63,29.50,0,0,0,0.00
2013-4-3,58,36,20,27,18,13,74,50,27,29.77,29.62,0,0,0,0.00
2013-4-4,71,45,31,32,22,17,65,42,18,29.68,29.35,0,0,0,0.00
2013-4-5,66,45,30,37,27,18,68,50,28,29.50,29.33,0,0,0,0.00
2013-4-6,69,54,35,41,33,24,64,47,33,29.51,29.17,0,0,0,0.00
2013-4-7,80,66,55,48,42,36,60,43,24,29.32,29.14,0,0,0,0.00
2013-4-8,76,64,54,59,49,24,70,59,28,29.33,29.19,0,0,0,0.00
2013-4-9,84,68,52,61,50,17,67,53,23,29.37,29.24,0,0,0,0.00
2013-4-10,85,70,58,67,49,2,64,51,1,29.28,29.12,0,0,0,0.17
2013-4-11,67,60,51,23,4,-4,21,2,1,29.16,28.91,0,0,0,0.84
2013-4-12,51,43,38,33,20,-10,64,44,1,29.27,28.95,0,0,0,0.05
2013-4-13,55,45,40,38,28,19,64,52,40,29.37,29.27,0,0,0,0.00
2013-4-14,76,56,38,49,35,17,58,46,35,29.38,29.18,0,0,0,0.00
2013-4-15,72,63,54,55,45,24,60,52,31,29.32,29.20,0,0,0,0.00
2013-4-16,63,54,48,45,9,-6,51,14,1,29.54,29.23,0,0,0,1.36
2013-4-17,76,60,48,30,3,-20,22,1,1,29.58,29.25,0,0,0,0.50
2013-4-18,77,65,59,50,10,-24,44,4,1,29.26,28.93,0,0,0,1.36
2013-4-19,60,41,36,24,3,-15,49,20,1,29.32,28.91,0,0,0,0.76
2013-4-20,56,40,32,33,15,-17,57,37,1,29.75,29.32,0,0,0,0.04
2013-4-21,65,44,28,38,25,6,56,47,29,29.88,29.72,0,0,0,0.00
2013-4-22,77,53,31,44,30,8,57,43,22,29.72,29.46,0,0,0,0.00
2013-4-23,69,58,49,52,28,0,57,36,1,29.47,29.15,0,0,0,0.46
2013-4-24,56,44,36,32,-1,-18,53,12,1,29.57,29.14,0,0,0,0.92
2013-4-25,61,45,34,37,13,-17,56,30,1,29.72,29.55,0,0,0,0.00
2013-4-26,68,50,32,41,22,-18,55,37,1,29.79,29.67,0,0,0,0.00
2013-4-27,67,54,41,45,25,-3,54,34,1,29.69,29.37,0,0,0,0.08
2013-4-28,67,56,53,9,0,-2,1,1,1,29.37,29.19,0,0,0,0.49
2013-4-29,73,61,54,52,14,-1,47,13,1,29.35,29.25,0,0,0,0.01
2013-4-30,85,67,52,61,30,-3,49,26,1,29.40,29.28,0,0,0,0.00
2013-5-1,91,71,51,64,36,-4,52,29,1,29.51,29.39,0,0,0,0.00
2013-5-2,85,70,61,59,34,4,52,29,1,29.55,29.42,0,0,0,0.00
2013-5-3,82,69,62,59,32,4,51,28,1,29.43,29.27,0,0,0,0.00
2013-5-4,75,64,56,54,42,-4,56,46,1,29.37,29.30,0,0,0,0.01
2013-5-5,64,58,53,36,8,-2,38,10,1,29.37,29.28,0,0,0,0.11
2013-5-6,76,61,49,52,15,-5,45,14,1,29.34,29.26,0,0,0,0.01
2013-5-7,85,65,52,59,23,-14,48,20,1,29.36,29.30,0,0,0,0.19
2013-5-8,89,67,53,64,23,-2,46,18,1,29.38,29.32,0,0,0,0.05
2013-5-9,84,65,54,58,17,-1,47,13,1,29.37,29.26,0,0,0,0.57
2013-5-10,77,61,49,18,4,-6,12,1,1,29.28,29.16,0,0,0,0.11
2013-5-11,71,52,44,46,0,-23,43,5,1,29.39,29.22,0,0,0,0.12
2013-5-12,66,47,35,38,14,-16,52,28,1,29.48,29.38,0,0,0,0.00
2013-5-13,76,52,34,41,18,-17,51,27,1,29.55,29.46,0,0,0,0.00
2013-5-14,94,69,51,64,46,31,51,45,26,29.46,29.16,0,0,0,0.00
2013-5-15,92,78,67,65,48,9,50,37,1,29.24,29.16,0,0,0,0.28
2013-5-16,94,74,63,66,24,6,44,13,1,29.34,29.20,0,0,0,0.00
2013-5-17,89,69,60,64,16,4,44,8,1,29.41,29.33,0,0,0,0.17
2013-5-18,86,70,61,54,14,4,35,5,1,29.44,29.33,0,0,0,0.05
2013-5-19,92,74,60,65,25,3,42,13,1,29.36,29.22,0,0,0,0.00
2013-5-20,89,78,70,53,22,-11,30,7,1,29.32,29.19,0,0,0,0.00
2013-5-21,90,74,62,65,24,4,47,12,1,29.27,29.13,0,0,0,0.21
2013-5-22,81,68,60,41,10,3,25,2,1,29.16,29.08,0,0,0,0.28
2013-5-23,71,58,48,11,2,-6,1,1,1,29.52,29.15,0,0,0,0.12
2013-5-24,74,55,45,49,12,-8,46,16,1,29.72,29.51,0,0,0,0.00
2013-5-25,66,55,42,43,12,-11,47,17,1,29.73,29.57,0,0,0,0.00
2013-5-26,74,61,50,50,14,-15,45,14,1,29.66,29.52,0,0,0,0.12
2013-5-27,84,65,54,26,7,-2,13,1,1,29.55,29.24,0,0,0,0.86
2013-5-28,84,73,63,22,13,6,1,1,1,29.33,29.25,0,0,0,0.01
2013-5-29,92,79,68,68,37,-5,49,23,1,29.39,29.30,0,0,0,0.00
2013-5-30,89,79,70,62,26,11,42,10,1,29.43,29.31,0,0,0,0.00
2013-5-31,77,71,65,16,12,7,1,1,1,29.37,29.23,0,0,0,0.61
2013-6-1,80,70,64,18,11,7,1,1,1,29.27,29.13,0,0,0,0.66
2013-6-2,79,66,58,18,8,2,1,1,1,29.35,29.16,0,0,0,0.01
2013-6-3,74,59,45,50,10,-8,45,10,1,29.46,29.35,0,0,0,0.00
2013-6-4,81,60,44,52,16,-9,45,15,1,29.51,29.42,0,0,0,0.00
2013-6-5,88,70,53,63,26,-2,45,18,1,29.45,29.23,0,0,0,0.00
2013-6-6,82,69,62,55,14,5,40,7,1,29.25,29.15,0,0,0,0.00
2013-6-7,79,67,58,36,9,-12,24,2,1,29.25,29.19,0,0,0,0.00
2013-6-8,84,70,56,56,18,0,40,9,1,29.38,29.25,0,0,0,0.00
2013-6-9,85,72,64,58,20,7,40,9,1,29.39,29.20,0,0,0,0.12
2013-6-10,79,71,64,18,12,7,1,1,1,29.23,29.14,0,0,0,0.31
2013-6-11,92,74,60,63,18,-10,39,5,1,29.34,29.23,0,0,0,0.00
2013-6-12,95,81,69,30,20,10,1,1,1,29.29,29.03,0,0,0,0.00
2013-6-13,84,73,63,46,16,5,32,4,1,29.35,28.98,0,0,0,0.78
2013-6-14,84,68,56,53,13,-13,36,5,1,29.45,29.31,0,0,0,0.00
2013-6-15,89,73,58,63,20,-14,43,10,1,29.47,29.30,0,0,0,0.00
2013-6-16,86,74,65,23,14,7,1,1,1,29.36,29.29,0,0,0,0.04
2013-6-17,91,76,65,61,18,-6,38,4,1,29.34,29.24,0,0,0,0.00
2013-6-18,89,75,63,56,18,-13,37,5,1,29.37,29.25,0,0,0,0.00
2013-6-19,86,72,59,60,21,2,41,10,1,29.48,29.37,0,0,0,0.00
2013-6-20,92,75,59,64,28,2,42,15,1,29.55,29.47,0,0,0,0.00
2013-6-21,94,79,67,65,31,-12,42,16,1,29.56,29.41,0,0,0,0.00
2013-6-22,97,77,69,66,17,-3,38,2,1,29.51,29.41,0,0,0,1.88
2013-6-23,91,74,66,27,14,8,1,1,1,29.48,29.40,0,0,0,0.00
2013-6-24,92,79,70,47,18,-8,22,3,1,29.50,29.36,0,0,0,0.00
2013-6-25,95,81,70,44,19,-7,18,2,1,29.39,29.23,0,0,0,0.07
2013-6-26,87,75,67,24,15,9,1,1,1,29.29,29.11,0,0,0,0.14
2013-6-27,92,79,68,28,18,9,1,1,1,29.17,29.07,0,0,0,0.00
2013-6-28,88,75,64,59,18,-15,39,4,1,29.08,28.97,0,0,0,0.00
2013-6-29,78,66,61,17,8,4,1,1,1,29.05,28.95,0,0,0,0.00
2013-6-30,78,68,64,17,10,6,1,1,1,29.25,29.05,0,0,0,0.00
2013-7-1,75,67,64,14,8,6,1,1,1,29.33,29.22,0,0,0,0.00
2013-7-2,78,66,61,17,8,4,1,1,1,29.38,29.31,0,0,0,0.00
2013-7-3,84,70,61,21,11,4,1,1,1,29.46,29.36,0,0,0,0.00
2013-7-4,81,70,62,19,11,4,1,1,1,29.51,29.43,0,0,0,0.00
2013-7-5,85,74,66,23,14,8,1,1,1,29.50,29.42,0,0,0,0.00
2013-7-6,75,71,68,15,12,9,1,1,1,29.48,29.39,0,0,0,0.00
2013-7-7,88,75,65,25,15,7,5,1,1,29.47,29.38,0,0,0,0.00
2013-7-8,90,79,69,26,18,10,1,1,1,29.48,29.38,0,0,0,0.00
2013-7-9,93,82,75,29,20,15,1,1,1,29.42,29.32,0,0,0,0.00
2013-7-10,89,79,70,25,18,11,1,1,1,29.35,29.20,0,0,0,0.00
2013-7-11,82,72,61,48,17,4,35,6,1,29.42,29.33,0,0,0,0.00
2013-7-12,85,70,56,55,20,-16,39,11,1,29.49,29.41,0,0,0,0.00
2013-7-13,88,74,59,38,14,3,18,2,1,29.51,29.45,0,0,0,0.00
2013-7-14,95,80,66,43,19,8,18,2,1,29.57,29.50,0,0,0,0.00
2013-7-15,94,83,73,31,21,14,12,2,1,29.66,29.57,0,0,0,0.00
2013-7-16,96,82,70,34,20,11,12,1,1,29.70,29.63,0,0,0,0.00
2013-7-17,98,83,72,60,24,13,29,4,1,29.71,29.56,0,0,0,0.00
2013-7-18,96,83,71,31,21,12,8,1,1,29.59,29.39,0,0,0,0.00
2013-7-19,98,84,74,57,24,14,27,4,1,29.41,29.24,0,0,0,0.00
2013-7-20,81,75,69,20,15,10,1,1,1,29.30,29.21,0,0,0,0.00
2013-7-21,88,76,66,25,16,8,1,1,1,29.34,29.24,0,0,0,0.00
2013-7-22,86,76,70,23,15,10,1,1,1,29.27,29.15,0,0,0,0.00
2013-7-23,95,78,67,59,21,9,31,5,1,29.26,29.13,0,0,0,0.00
2013-7-24,81,67,56,47,13,0,33,7,1,29.39,29.25,0,0,0,0.00
2013-7-25,83,67,52,54,19,-3,39,12,1,29.47,29.38,0,0,0,0.00
2013-7-26,86,71,55,55,20,0,37,11,1,29.46,29.31,0,0,0,0.00
2013-7-27,84,72,62,51,20,3,37,10,1,29.32,29.21,0,0,0,0.00
2013-7-28,77,64,49,49,18,-5,38,14,1,29.41,29.29,0,0,0,0.00
2013-7-29,86,69,54,55,20,-1,39,12,1,29.55,29.40,0,0,0,0.00
2013-7-30,79,68,55,18,9,0,1,1,1,29.58,29.46,0,0,0,0.00
2013-7-31,78,70,66,17,11,7,1,1,1,29.47,29.30,0,0,0,0.00
2013-8-1,88,74,64,57,23,6,39,10,1,29.37,29.31,0,0,0,0.00
2013-8-2,91,71,55,56,15,0,32,5,1,29.36,29.30,0,0,0,0.00
2013-8-3,86,73,64,42,14,7,22,2,1,29.45,29.30,0,0,0,0.00
2013-8-4,83,68,56,48,15,0,30,7,1,29.53,29.44,0,0,0,0.00
2013-8-5,85,69,58,49,15,2,30,7,1,29.49,29.32,0,0,0,0.00
2013-8-6,88,72,64,25,13,6,1,1,1,29.33,29.27,0,0,0,0.00
2013-8-7,92,78,70,28,17,11,1,1,1,29.30,29.22,0,0,0,0.00
2013-8-8,87,76,70,24,16,11,1,1,1,29.32,29.27,0,0,0,0.00
2013-8-9,93,76,68,38,16,9,16,2,1,29.41,29.29,0,0,0,0.00
2013-8-10,96,76,66,55,19,8,26,4,1,29.47,29.40,0,0,0,0.00
2013-8-11,96,76,64,61,20,6,34,6,1,29.48,29.41,0,0,0,0.00
2013-8-12,96,76,64,59,19,-1,30,5,1,29.45,29.25,0,0,0,0.00
2013-8-13,81,70,57,42,14,1,31,5,1,29.47,29.24,0,0,0,0.00
2013-8-14,82,61,48,48,11,-6,39,9,1,29.56,29.46,0,0,0,0.00
2013-8-15,86,63,47,52,14,-7,38,10,1,29.55,29.47,0,0,0,0.00
2013-8-16,85,66,53,48,13,-2,31,7,1,29.54,29.48,0,0,0,0.00
2013-8-17,88,69,54,49,16,-2,31,8,1,29.57,29.50,0,0,0,0.00
2013-8-18,96,72,55,61,22,0,37,11,1,29.56,29.46,0,0,0,0.00
2013-8-19,99,75,58,63,24,2,39,11,1,29.51,29.42,0,0,0,0.00
2013-8-20,97,76,61,60,23,4,33,9,1,29.53,29.44,0,0,0,0.00
2013-8-21,98,79,68,59,21,9,30,5,1,29.52,29.41,0,0,0,0.00
2013-8-22,91,75,67,27,15,8,1,1,1,29.47,29.37,0,0,0,0.00
2013-8-23,95,74,64,50,16,6,25,3,1,29.52,29.43,0,0,0,0.00
2013-8-24,102,74,54,59,24,-2,38,11,1,29.64,29.52,0,0,0,0.00
2013-8-25,103,76,57,63,27,-8,39,12,1,29.68,29.57,0,0,0,0.00
2013-8-26,100,78,62,57,20,5,26,5,1,29.60,29.44,0,0,0,0.00
2013-8-27,104,83,71,60,24,11,26,5,1,29.46,29.32,0,0,0,0.00
2013-8-28,102,84,74,36,22,14,8,1,1,29.36,29.28,0,0,0,0.00
2013-8-29,100,80,70,60,22,10,30,4,1,29.42,29.35,0,0,0,0.00
2013-8-30,107,82,66,68,26,8,33,7,1,29.37,29.19,0,0,0,0.00
2013-8-31,97,77,69,32,17,10,1,1,1,29.24,29.13,0,0,0,0.00
2013-9-1,96,77,68,31,16,10,1,1,1,29.19,29.13,0,0,0,0.00
2013-9-2,91,75,65,37,16,7,17,2,1,29.30,29.14,0,0,0,0.00
2013-9-3,84,66,52,36,9,-3,19,3,1,29.44,29.30,0,0,0,0.00
2013-9-4,94,69,52,58,16,-3,35,8,1,29.52,29.42,0,0,0,0.00
2013-9-5,94,72,58,43,13,1,19,2,1,29.56,29.48,0,0,0,0.00
2013-9-6,96,72,56,60,21,0,35,10,1,29.60,29.45,0,0,0,0.00
2013-9-7,100,76,59,60,20,2,31,6,1,29.45,29.31,0,0,0,0.00
2013-9-8,102,79,65,52,18,7,22,2,1,29.36,29.29,0,0,0,0.00
2013-9-9,101,81,68,42,20,9,15,2,1,29.37,29.29,0,0,0,0.00
2013-9-10,107,86,75,65,28,2,32,6,1,29.47,29.35,0,0,0,0.00
2013-9-11,106,86,73,64,31,13,35,9,1,29.50,29.37,0,0,0,0.00
2013-9-12,90,75,65,27,15,7,17,2,1,29.38,29.24,0,0,0,0.00
2013-9-13,74,61,52,38,8,-3,31,6,1,29.47,29.35,0,0,0,0.00
2013-9-14,84,59,40,44,11,-29,39,11,1,29.56,29.45,0,0,0,0.00
2013-9-15,85,64,49,50,14,-5,37,10,1,29.49,29.37,0,0,0,0.00
2013-9-16,72,60,50,12,4,-5,1,1,1,29.64,29.45,0,0,0,0.00
2013-9-17,87,63,46,48,12,-8,32,8,1,29.68,29.51,0,0,0,0.00
2013-9-18,93,72,58,52,16,2,28,5,1,29.51,29.39,0,0,0,0.00
2013-9-19,88,73,66,24,14,8,1,1,1,29.44,29.29,0,0,0,0.00
2013-9-20,85,74,67,22,14,9,1,1,1,29.32,29.17,0,0,0,0.00
2013-9-21,76,63,52,23,6,-4,16,2,1,29.27,29.14,0,0,0,0.00
2013-9-22,77,57,44,37,4,-9,30,5,1,29.38,29.27,0,0,0,0.00
2013-9-23,84,60,43,47,9,-10,37,8,1,29.47,29.37,0,0,0,0.00
2013-9-24,90,64,46,51,10,-8,34,6,1,29.44,29.27,0,0,0,0.00
2013-9-25,92,66,52,54,14,-3,37,9,1,29.30,29.24,0,0,0,0.00
2013-9-26,93,67,46,55,16,-8,35,9,1,29.43,29.30,0,0,0,0.00
2013-9-27,96,69,46,57,20,-8,39,12,1,29.54,29.44,0,0,0,0.00
2013-9-28,92,68,48,54,15,-6,33,8,1,29.52,29.39,0,0,0,0.00
2013-9-29,67,63,59,9,6,3,1,1,1,29.40,29.34,0,0,0,0.00
2013-9-30,84,67,60,21,9,3,1,1,1,29.38,29.29,0,0,0,0.00
2013-10-1,83,68,61,21,9,4,1,1,1,29.43,29.34,0,0,0,0.00
2013-10-2,88,71,61,24,11,4,1,1,1,29.47,29.39,0,0,0,0.00
2013-10-3,87,73,67,24,14,9,1,1,1,29.42,29.32,0,0,0,0.00
2013-10-4,92,74,67,28,14,9,1,1,1,29.43,29.36,0,0,0,0.00
2013-10-5,76,71,66,16,12,8,1,1,1,29.39,29.23,0,0,0,0.00
2013-10-6,67,61,44,8,4,-10,1,1,1,29.27,29.11,0,0,0,0.00
2013-10-7,70,52,42,11,-3,-10,1,1,1,29.50,29.17,0,0,0,0.00
2013-10-8,82,58,43,44,8,-10,35,8,1,29.62,29.50,0,0,0,0.00
2013-10-9,87,58,40,50,8,-12,38,8,1,29.60,29.50,0,0,0,0.00
2013-10-10,87,62,42,50,14,-10,40,11,1,29.55,29.43,0,0,0,0.00
2013-10-11,94,61,42,55,12,-10,40,10,1,29.47,29.38,0,0,0,0.00
2013-10-12,91,64,46,48,11,-8,32,7,1,29.48,29.39,0,0,0,0.00
2013-10-13,79,63,52,44,13,-30,39,11,1,29.70,29.48,0,0,0,0.00
2013-10-14,84,56,39,46,7,-13,38,9,1,29.71,29.53,0,0,0,0.00
2013-10-15,66,58,49,8,2,-6,1,1,1,29.54,29.27,0,0,0,0.00
2013-10-16,72,58,41,12,2,-12,5,1,1,29.34,29.24,0,0,0,0.00
2013-10-17,56,45,38,0,-8,-14,1,1,1,29.32,29.24,0,0,0,0.00
2013-10-18,75,53,40,36,0,-12,31,4,1,29.35,29.27,0,0,0,0.00
2013-10-19,61,46,39,4,-8,-13,1,1,1,29.32,29.22,0,0,0,0.00
2013-10-20,72,52,39,35,3,-13,33,9,1,29.34,29.27,0,0,0,0.00
2013-10-21,69,54,41,10,-2,-12,1,1,1,29.36,29.25,0,0,0,0.00
2013-10-22,61,43,27,29,-2,-22,39,11,1,29.40,29.19,0,0,0,0.00
2013-10-23,51,40,34,0,-12,-17,14,2,1,29.39,29.16,0,0,0,0.00
2013-10-24,44,39,31,-9,-13,-19,1,1,1,29.63,29.39,0,0,0,0.00
2013-10-25,59,38,24,29,-6,-24,39,11,1,29.78,29.59,0,0,0,0.00
2013-10-26,59,44,35,20,-4,-16,25,8,1,29.60,29.27,0,0,0,0.00
2013-10-27,70,42,27,37,-1,-22,43,12,1,29.46,29.39,0,0,0,0.00
2013-10-28,73,44,28,39,0,-22,43,11,1,29.65,29.43,0,0,0,0.00
2013-10-29,63,46,32,6,-8,-19,1,1,1,29.70,29.54,0,0,0,0.00
2013-10-30,64,57,49,6,1,-5,1,1,1,29.54,29.30,0,0,0,0.00
2013-10-31,64,62,55,6,4,0,1,1,1,29.31,28.65,0,0,0,0.00
2013-11-1,58,51,45,2,-4,-8,1,1,1,29.12,28.78,0,0,0,0.00
2013-11-2,58,47,40,2,-7,-12,1,1,1,29.47,29.11,0,0,0,0.00
2013-11-3,63,44,31,18,-8,-19,22,3,1,29.68,29.47,0,0,0,0.00
2013-11-4,56,48,38,0,-6,-14,1,1,1,29.70,29.60,0,0,0,0.00
2013-11-5,57,51,48,1,-3,-6,1,1,1,29.71,29.49,0,0,0,0.00
2013-11-6,58,53,42,2,-2,-11,1,1,1,29.49,29.29,0,0,0,0.00
2013-11-7,56,42,32,25,-4,-19,40,10,1,29.64,29.45,0,0,0,0.00
2013-11-8,62,41,27,28,-2,-23,39,13,1,29.72,29.53,0,0,0,0.00
2013-11-9,68,54,40,33,15,-6,36,22,1,29.52,29.34,0,0,0,0.00
2013-11-10,55,44,32,25,-1,-19,38,12,1,29.70,29.46,0,0,0,0.00
2013-11-11,52,45,29,13,-6,-21,21,5,1,29.67,29.44,0,0,0,0.00
2013-11-12,39,31,24,-13,-19,-25,6,1,1,29.97,29.69,0,0,0,0.00
2013-11-13,47,30,16,19,-6,-31,44,20,1,29.95,29.68,0,0,0,0.00
2013-11-14,60,43,30,24,15,-3,43,32,18,29.68,29.44,0,0,0,0.00
2013-11-15,58,45,40,30,22,-11,50,41,1,29.46,29.39,0,0,0,0.00
2013-11-16,60,52,42,3,-3,-11,1,1,1,29.42,29.12,0,0,0,0.00
2013-11-17,65,59,48,7,2,-6,1,1,1,29.16,28.75,0,0,0,0.00
2013-11-18,53,44,33,13,-7,-17,25,4,1,29.56,29.15,0,0,0,0.00
2013-11-19,52,36,26,0,-16,-23,12,2,1,29.70,29.55,0,0,0,0.00
2013-11-20,54,38,22,-1,-14,-26,3,1,1,29.67,29.52,0,0,0,0.00
2013-11-21,52,47,43,-3,-7,-10,1,1,1,29.62,29.52,0,0,0,0.00
2013-11-22,52,44,32,-3,-9,-18,1,1,1,29.77,29.51,0,0,0,0.00
2013-11-23,34,28,22,-6,-18,-26,24,6,1,29.89,29.73,0,0,0,0.00
2013-11-24,36,25,16,11,2,-28,51,38,11,30.03,29.83,0,0,0,0.00
2013-11-25,34,28,19,13,5,-8,42,36,30,29.83,29.50,0,0,0,0.00
2013-11-26,37,34,30,12,-11,-20,42,11,1,29.53,29.31,0,0,0,0.00
2013-11-27,30,24,18,2,-15,-28,35,16,1,29.62,29.34,0,0,0,0.00
2013-11-28,42,26,16,17,-2,-31,51,30,1,29.78,29.58,0,0,0,0.00
2013-11-29,50,29,15,22,-6,-32,50,22,1,29.96,29.78,0,0,0,0.00
2013-11-30,57,39,28,28,5,-22,50,25,1,29.82,29.48,0,0,0,0.00
2013-12-1,59,40,27,29,4,-22,48,22,1,29.48,29.31,0,0,0,0.00
2013-12-2,54,40,32,-1,-12,-18,1,1,1,29.31,29.13,0,0,0,0.00
2013-12-3,50,43,34,-4,-10,-17,1,1,1,29.19,29.12,0,0,0,0.00
2013-12-4,60,52,46,3,-3,-8,1,1,1,29.17,29.00,0,0,0,0.00
2013-12-5,60,38,24,3,-14,-25,1,1,1,29.54,29.07,0,0,0,0.00
2013-12-6,37,25,23,-18,-24,-52,1,1,1,29.77,29.52,0,0,0,0.00
2013-12-7,140,22,12,14,-18,-60,42,13,1,29.96,29.76,0,0,0,0.00
2013-12-8,139,34,16,52,-18,-57,1,1,1,29.86,29.33,0,0,0,0.00
2013-12-9,140,56,-7,62,-3,-72,1,1,1,29.58,29.31,0,0,0,0.00
2013-12-10,140,88,-39,74,14,-94,20,2,1,29.66,29.47,0,0,0,0.00
2013-12-11,140,64,-39,62,2,-94,1,1,1,29.86,29.63,0,0,0,0.00
2013-12-12,140,6,-40,62,-25,-94,99,13,1,29.88,29.64,0,0,0,0.00
2013-12-13,140,14,-39,62,-26,-94,99,19,1,29.64,29.46,0,0,0,0.00
2013-12-14,140,78,-20,62,11,-82,1,1,1,29.47,29.09,0,0,0,0.00
2013-12-15,88,-2,-39,24,-27,-82,99,30,1,29.45,29.27,0,0,0,0.00
2013-12-16,0,0,0,0,0,-67,1,1,1,29.46,29.32,0,0,0,0.00
2013-12-17,0,0,0,0,0,-67,1,1,1,29.48,29.34,0,0,0,0.00
2013-12-18,0,0,0,0,0,-35,89,13,1,29.51,29.33,0,0,0,0.00
2013-12-19,0,0,0,0,-2,-67,1,1,1,29.37,29.23,0,0,0,0.00
2013-12-20,0,-2,-21,0,-6,-81,1,1,1,29.23,29.11,0,0,0,0.00
2013-12-21,0,0,0,0,0,0,1,1,1,29.15,29.11,0,0,0,0.00